Terminal Aerodrome Forecast
Issued by NWS

Home | Current Version | Previous Version | Text Only | Print | Product List | Glossary Off
Versions: 1 2 3 4 5 6 7 8 9 10 11 12 13 14 15 16 17

204
FTUS43 KICT 251131
TAFCNU
TAF
KCNU 251131Z 2512/2612 19010KT P6SM VCTS SCT035CB BKN100
     FM251600 18019G27KT P6SM BKN035
     FM260000 18015G23KT P6SM VCTS SCT035 BKN070CB
     FM260800 18011KT P6SM BKN008=

USA.gov is the U.S. government's official web portal to all federal, state and local government web resources and services.